Overseas Long Beach — WAAT — position and weather

sailwx.info

Track history (hours):
 
Tides and Currents Weather Stations Pressure Air Temp Water Temp Dewpoint Dewpoint Depression Visibility Wind Speed Wind Dir Waves Ship Positions

Overseas Long Beach

Owner: ASC Leasing II, Inc., KENNETT SQUARE, PA. More information available from US FCC via Universal Licensing System and Coast Guard Vessel Documentation Center.

Last reported at 2017-Jun-16 06:34 UTC. Time now 2017-Jun-25 01:53 UTC.
Position N 26°19' W 079°17'.
Warning: this ship's position is 8 days out of date.

Length 181 m; draft 6.5 m.

Type: Tanker. MMSI: 367703000.

Date/timePositionNaut miles runAvg speedWind from/ knotsBaromVisibWave heightAir tempDewpointWater temp
2017-Jun-16 06:34N 26°19' W 079°17'110.4
2017-Jun-16 06:30N 26°19' W 079°17'510.3
2017-Jun-16 06:01N 26°18' W 079°23'510.5
2017-Jun-16 05:30N 26°16' W 079°29'510.5
2017-Jun-16 05:01N 26°15' W 079°34'510.8
2017-Jun-16 04:31N 26°13' W 079°40'510.8
2017-Jun-16 04:01N 26°11' W 079°45'5 9.6
2017-Jun-16 03:31N 26°10' W 079°51'510.1
2017-Jun-16 03:00N 26°09' W 079°56'510.0
2017-Jun-16 02:31N 26°07' W 080°01'5 9.0
2017-Jun-16 02:01N 26°06' W 080°06'1 1.8
2017-Jun-16 01:31N 26°05' W 080°07'0 0.0
2017-Jun-16 01:00N 26°05' W 080°07'0 0.0
2017-Jun-16 00:28N 26°05' W 080°07'0 0.0
2017-Jun-15 23:55N 26°05' W 080°07'0 0.0
2017-Jun-15 23:28N 26°05' W 080°07'0 0.0
2017-Jun-15 22:58N 26°05' W 080°07'0 0.0
2017-Jun-15 22:28N 26°05' W 080°07'0 0.0
2017-Jun-15 21:58N 26°05' W 080°07'0 0.0
2017-Jun-15 21:28N 26°05' W 080°07'0 0.0
2017-Jun-15 20:58N 26°05' W 080°07'0 0.0
2017-Jun-15 20:28N 26°05' W 080°07'0 0.0
2017-Jun-15 19:58N 26°05' W 080°07'0 0.0
2017-Jun-15 19:28N 26°05' W 080°07'0 0.0
2017-Jun-15 18:58N 26°05' W 080°07'0 0.0
2017-Jun-15 18:28N 26°05' W 080°07'0 0.0
2017-Jun-15 17:58N 26°05' W 080°07'0 0.0
2017-Jun-15 17:28N 26°05' W 080°07'0 0.0
2017-Jun-15 16:58N 26°05' W 080°07'0 0.0
2017-Jun-15 16:28N 26°05' W 080°07'0 0.0
2017-Jun-15 15:58N 26°05' W 080°07'0 0.0
2017-Jun-15 15:28N 26°05' W 080°07'0 0.0
2017-Jun-15 14:58N 26°05' W 080°07'0 0.0
2017-Jun-15 13:58N 26°05' W 080°07'0 0.0
2017-Jun-15 13:28N 26°05' W 080°07'0 0.0
2017-Jun-15 12:58N 26°05' W 080°07'0 0.0
2017-Jun-15 12:28N 26°05' W 080°07'0 0.0
2017-Jun-15 11:58N 26°05' W 080°07'0 0.0
2017-Jun-15 11:28N 26°05' W 080°07'0 0.0
2017-Jun-15 10:58N 26°05' W 080°07'0 0.4
2017-Jun-15 10:30N 26°05' W 080°07'3 6.9
2017-Jun-15 10:00N 26°06' W 080°03'4 7.7
2017-Jun-15 09:30N 26°09' W 080°01'2 4.5
2017-Jun-15 09:00N 26°11' W 079°60'1 2.8
2017-Jun-15 08:30N 26°10' W 080°00'4 8.7
2017-Jun-15 08:00N 26°06' W 079°59'3 5.7
2017-Jun-15 07:30N 26°09' W 079°59'3 5.7
2017-Jun-15 07:00N 26°12' W 079°59'3 5.5
2017-Jun-15 06:30N 26°14' W 079°58'4 8.2
2017-Jun-15 06:00N 26°18' W 079°57'3 5.6
2017-Jun-15 05:30N 26°21' W 079°56'3 5.3
2017-Jun-15 05:00N 26°23' W 079°55'3 5.3
2017-Jun-15 04:30N 26°26' W 079°54'3 5.3
2017-Jun-15 04:00N 26°28' W 079°53'3 5.2
2017-Jun-15 03:30N 26°31' W 079°52'3 5.1
2017-Jun-15 03:00N 26°33' W 079°51'99 9.0
2017-Jun-14 16:00N 28°06' W 079°12'44 1.8 190 / 141020.9 5.4 45.642.9
2017-Jun-13 16:00N 28°30' W 078°30'   150 / 111021.4 47.043.5
2017-Jun-10 17:00N 26°24' W 079°42'917.0
2017-Jun-10 16:28N 26°15' W 079°42'817.0
2017-Jun-10 16:00N 26°07' W 079°44'917.3
2017-Jun-10 15:30N 25°59' W 079°46'917.1
2017-Jun-10 15:00N 25°51' W 079°49'1717.0
2017-Jun-10 14:00N 25°35' W 079°55'816.8
2017-Jun-10 13:30N 25°26' W 079°57'816.6
2017-Jun-10 13:00N 25°18' W 079°59'816.4
2017-Jun-10 12:30N 25°10' W 080°02'1016.4
2017-Jun-10 11:54N 25°01' W 080°05'616.2
2017-Jun-10 11:30N 24°56' W 080°09'816.1
2017-Jun-10 11:00N 24°50' W 080°15'17215.6
2017-Jun-10 00:00N 24°06' W 083°18'11414.3 140 / 141012.510.8 25.723.7
2017-Jun-09 16:00N 24°54' W 085°12'4711.8 110 / 91015.6 5.4 45.541.6
2017-Jun-09 12:00N 25°12' W 086°00'53113.4 050 / 101011.110.8 25.622.7
2017-Jun-07 20:31N 29°21' W 094°47'111.7
2017-Jun-07 20:25N 29°22' W 094°48'511.3
2017-Jun-07 20:00N 29°26' W 094°50'510.9
2017-Jun-07 19:30N 29°31' W 094°53'510.8
2017-Jun-07 19:00N 29°36' W 094°57'5 9.7
2017-Jun-07 18:31N 29°40' W 094°59'4 7.7
2017-Jun-07 18:00N 29°43' W 095°01'3 6.8
2017-Jun-07 17:31N 29°45' W 095°04'3 5.7
2017-Jun-07 17:00N 29°44' W 095°07'3 5.4
2017-Jun-07 16:30N 29°45' W 095°10'1 2.1
2017-Jun-07 16:00N 29°45' W 095°11'  
Track history (hours):
 
Tides and Currents Weather Stations Pressure Air Temp Water Temp Dewpoint Dewpoint Depression Visibility Wind Speed Wind Dir Waves Ship Positions

Overseas Long Beach

Owner: ASC Leasing II, Inc., KENNETT SQUARE, PA. More information available from US FCC via Universal Licensing System and Coast Guard Vessel Documentation Center.

Last reported at 2017-Jun-16 06:34 UTC. Time now 2017-Jun-25 01:53 UTC.
Position N 26°19' W 079°17'.
Warning: this ship's position is 8 days out of date.

Length 181 m; draft 6.5 m.

Type: Tanker. MMSI: 367703000.

Date/timePositionNaut miles runAvg speedWind from/ knotsBaromVisibWave heightAir tempDewpointWater temp
2017-Jun-16 06:34N 26°19' W 079°17'110.4
2017-Jun-16 06:30N 26°19' W 079°17'510.3
2017-Jun-16 06:01N 26°18' W 079°23'510.5
2017-Jun-16 05:30N 26°16' W 079°29'510.5
2017-Jun-16 05:01N 26°15' W 079°34'510.8
2017-Jun-16 04:31N 26°13' W 079°40'510.8
2017-Jun-16 04:01N 26°11' W 079°45'5 9.6
2017-Jun-16 03:31N 26°10' W 079°51'510.1
2017-Jun-16 03:00N 26°09' W 079°56'510.0
2017-Jun-16 02:31N 26°07' W 080°01'5 9.0
2017-Jun-16 02:01N 26°06' W 080°06'1 1.8
2017-Jun-16 01:31N 26°05' W 080°07'0 0.0
2017-Jun-16 01:00N 26°05' W 080°07'0 0.0
2017-Jun-16 00:28N 26°05' W 080°07'0 0.0
2017-Jun-15 23:55N 26°05' W 080°07'0 0.0
2017-Jun-15 23:28N 26°05' W 080°07'0 0.0
2017-Jun-15 22:58N 26°05' W 080°07'0 0.0
2017-Jun-15 22:28N 26°05' W 080°07'0 0.0
2017-Jun-15 21:58N 26°05' W 080°07'0 0.0
2017-Jun-15 21:28N 26°05' W 080°07'0 0.0
2017-Jun-15 20:58N 26°05' W 080°07'0 0.0
2017-Jun-15 20:28N 26°05' W 080°07'0 0.0
2017-Jun-15 19:58N 26°05' W 080°07'0 0.0
2017-Jun-15 19:28N 26°05' W 080°07'0 0.0
2017-Jun-15 18:58N 26°05' W 080°07'0 0.0
2017-Jun-15 18:28N 26°05' W 080°07'0 0.0
2017-Jun-15 17:58N 26°05' W 080°07'0 0.0
2017-Jun-15 17:28N 26°05' W 080°07'0 0.0
2017-Jun-15 16:58N 26°05' W 080°07'0 0.0
2017-Jun-15 16:28N 26°05' W 080°07'0 0.0
2017-Jun-15 15:58N 26°05' W 080°07'0 0.0
2017-Jun-15 15:28N 26°05' W 080°07'0 0.0
2017-Jun-15 14:58N 26°05' W 080°07'0 0.0
2017-Jun-15 13:58N 26°05' W 080°07'0 0.0
2017-Jun-15 13:28N 26°05' W 080°07'0 0.0
2017-Jun-15 12:58N 26°05' W 080°07'0 0.0
2017-Jun-15 12:28N 26°05' W 080°07'0 0.0
2017-Jun-15 11:58N 26°05' W 080°07'0 0.0
2017-Jun-15 11:28N 26°05' W 080°07'0 0.0
2017-Jun-15 10:58N 26°05' W 080°07'0 0.4
2017-Jun-15 10:30N 26°05' W 080°07'3 6.9
2017-Jun-15 10:00N 26°06' W 080°03'4 7.7
2017-Jun-15 09:30N 26°09' W 080°01'2 4.5
2017-Jun-15 09:00N 26°11' W 079°60'1 2.8
2017-Jun-15 08:30N 26°10' W 080°00'4 8.7
2017-Jun-15 08:00N 26°06' W 079°59'3 5.7
2017-Jun-15 07:30N 26°09' W 079°59'3 5.7
2017-Jun-15 07:00N 26°12' W 079°59'3 5.5
2017-Jun-15 06:30N 26°14' W 079°58'4 8.2
2017-Jun-15 06:00N 26°18' W 079°57'3 5.6
2017-Jun-15 05:30N 26°21' W 079°56'3 5.3
2017-Jun-15 05:00N 26°23' W 079°55'3 5.3
2017-Jun-15 04:30N 26°26' W 079°54'3 5.3
2017-Jun-15 04:00N 26°28' W 079°53'3 5.2
2017-Jun-15 03:30N 26°31' W 079°52'3 5.1
2017-Jun-15 03:00N 26°33' W 079°51'99 9.0
2017-Jun-14 16:00N 28°06' W 079°12'44 1.8 190 / 141020.9 5.4 45.642.9
2017-Jun-13 16:00N 28°30' W 078°30'   150 / 111021.4 47.043.5
2017-Jun-10 17:00N 26°24' W 079°42'917.0
2017-Jun-10 16:28N 26°15' W 079°42'817.0
2017-Jun-10 16:00N 26°07' W 079°44'917.3
2017-Jun-10 15:30N 25°59' W 079°46'917.1
2017-Jun-10 15:00N 25°51' W 079°49'1717.0
2017-Jun-10 14:00N 25°35' W 079°55'816.8
2017-Jun-10 13:30N 25°26' W 079°57'816.6
2017-Jun-10 13:00N 25°18' W 079°59'816.4
2017-Jun-10 12:30N 25°10' W 080°02'1016.4
2017-Jun-10 11:54N 25°01' W 080°05'616.2
2017-Jun-10 11:30N 24°56' W 080°09'816.1
2017-Jun-10 11:00N 24°50' W 080°15'17215.6
2017-Jun-10 00:00N 24°06' W 083°18'11414.3 140 / 141012.510.8 25.723.7
2017-Jun-09 16:00N 24°54' W 085°12'4711.8 110 / 91015.6 5.4 45.541.6
2017-Jun-09 12:00N 25°12' W 086°00'53113.4 050 / 101011.110.8 25.622.7
2017-Jun-07 20:31N 29°21' W 094°47'111.7
2017-Jun-07 20:25N 29°22' W 094°48'511.3
2017-Jun-07 20:00N 29°26' W 094°50'510.9
2017-Jun-07 19:30N 29°31' W 094°53'510.8
2017-Jun-07 19:00N 29°36' W 094°57'5 9.7
2017-Jun-07 18:31N 29°40' W 094°59'4 7.7
2017-Jun-07 18:00N 29°43' W 095°01'3 6.8
2017-Jun-07 17:31N 29°45' W 095°04'3 5.7
2017-Jun-07 17:00N 29°44' W 095°07'3 5.4
2017-Jun-07 16:30N 29°45' W 095°10'1 2.1
2017-Jun-07 16:00N 29°45' W 095°11'  

Dump ship's entire track history